Time;durP1;ratioP1;P1;durP2;ratioP2;P2;SDS_P1;SDS_P2;PMS_P1;PMS_P2;Temp;Humidity;BMP_temperature;BMP_pressure;BME280_temperature;BME280_humidity;BME280_pressure;Samples;Min_cycle;Max_cycle;Signal;HPM_P1;HPM_P2
2021/09/17 00:02:20;;;;;;;6.30;5.70;;;18.00;68.20;;;;;;5013160;28;20603;-46
2021/09/17 00:04:46;;;;;;;6.60;5.70;;;18.00;68.00;;;;;;5012530;28;20217;-45
2021/09/17 00:07:11;;;;;;;5.70;5.20;;;18.10;67.70;;;;;;5012211;28;20198;-46
2021/09/17 00:09:37;;;;;;;5.20;4.80;;;18.20;67.20;;;;;;4992804;28;20719;-46
2021/09/17 00:12:04;;;;;;;6.70;5.80;;;18.10;67.10;;;;;;4991421;28;20198;-46
2021/09/17 00:14:29;;;;;;;9.10;6.10;;;17.90;67.80;;;;;;4992783;28;20601;-48
2021/09/17 00:16:55;;;;;;;6.40;5.17;;;17.90;68.00;;;;;;4992809;28;20492;-46
2021/09/17 00:19:21;;;;;;;5.93;5.43;;;18.00;68.20;;;;;;4992326;28;20222;-46
2021/09/17 00:21:46;;;;;;;10.80;6.60;;;17.90;67.90;;;;;;5008481;28;20696;-46
2021/09/17 00:24:12;;;;;;;7.13;5.60;;;17.80;68.10;;;;;;5012261;28;20183;-45
2021/09/17 00:26:37;;;;;;;6.40;5.40;;;17.80;68.90;;;;;;5012211;28;20190;-46
2021/09/17 00:29:03;;;;;;;6.43;5.83;;;17.80;68.60;;;;;;5012046;28;20196;-46
2021/09/17 00:31:29;;;;;;;7.07;6.20;;;17.90;68.30;;;;;;5012770;28;20213;-47
2021/09/17 00:33:54;;;;;;;6.50;5.90;;;18.10;68.00;;;;;;5011964;28;20232;-47
2021/09/17 00:36:20;;;;;;;7.20;6.50;;;17.70;69.10;;;;;;5011823;28;20194;-46
2021/09/17 00:38:45;;;;;;;6.17;5.47;;;17.60;69.80;;;;;;5010074;28;20210;-46
2021/09/17 00:41:11;;;;;;;8.47;7.67;;;17.50;70.40;;;;;;5012387;28;20198;-47
2021/09/17 00:43:38;;;;;;;7.50;6.80;;;17.30;71.40;;;;;;5011839;28;20924;-49
2021/09/17 00:46:04;;;;;;;7.93;7.23;;;17.50;71.10;;;;;;5011681;28;20259;-46
2021/09/17 00:48:29;;;;;;;8.60;7.70;;;17.70;70.50;;;;;;5011566;28;21297;-47
2021/09/17 00:50:55;;;;;;;9.80;6.83;;;17.70;70.40;;;;;;5012371;28;20201;-46
2021/09/17 00:53:21;;;;;;;7.60;6.90;;;17.90;70.10;;;;;;5011608;28;20369;-46
2021/09/17 00:55:46;;;;;;;7.97;7.17;;;17.90;69.80;;;;;;5011538;28;20205;-46
2021/09/17 00:58:12;;;;;;;8.30;7.47;;;17.70;70.20;;;;;;4991653;28;20230;-46
2021/09/17 01:00:39;;;;;;;8.53;7.70;;;17.50;71.60;;;;;;5005654;28;20218;-46
2021/09/17 01:03:04;;;;;;;7.80;7.00;;;17.70;71.00;;;;;;5011535;28;20440;-48
2021/09/17 01:05:30;;;;;;;7.50;6.70;;;17.60;71.40;;;;;;5010147;28;20197;-46
2021/09/17 01:07:56;;;;;;;7.80;7.10;;;17.70;71.20;;;;;;5008266;28;20662;-47
2021/09/17 01:10:21;;;;;;;8.40;7.43;;;17.80;70.90;;;;;;5012049;28;20281;-46
2021/09/17 01:12:47;;;;;;;7.47;6.87;;;17.70;70.90;;;;;;5011497;28;20248;-46
2021/09/17 01:15:13;;;;;;;7.87;7.17;;;17.50;72.40;;;;;;5012105;28;20559;-48
2021/09/17 01:17:42;;;;;;;8.33;7.47;;;17.50;72.00;;;;;;5010879;28;20495;-48
2021/09/17 01:20:12;;;;;;;8.90;7.97;;;17.30;72.60;;;;;;5010443;28;21022;-49
2021/09/17 01:22:37;;;;;;;9.30;8.33;;;17.20;73.30;;;;;;5011727;28;20428;-47
2021/09/17 01:25:06;;;;;;;9.40;8.47;;;17.10;73.80;;;;;;5011360;28;20437;-49
2021/09/17 01:27:32;;;;;;;7.83;7.03;;;17.10;74.20;;;;;;5011257;28;20186;-46
2021/09/17 01:29:57;;;;;;;9.50;7.63;;;17.10;74.80;;;;;;5011356;28;20428;-46
2021/09/17 01:32:23;;;;;;;8.93;8.03;;;17.40;74.10;;;;;;5010224;28;20194;-46
2021/09/17 01:34:48;;;;;;;9.10;8.30;;;17.70;73.30;;;;;;5010989;28;20201;-48
2021/09/17 01:37:14;;;;;;;8.00;7.20;;;17.70;72.20;;;;;;5011563;28;20190;-46
2021/09/17 01:39:40;;;;;;;6.80;6.20;;;17.60;72.00;;;;;;5011110;28;20279;-46
2021/09/17 01:42:05;;;;;;;8.03;7.23;;;17.70;72.30;;;;;;5011632;28;20217;-47
2021/09/17 01:44:39;;;;;;;8.53;7.70;;;17.70;72.10;;;;;;5011099;28;20244;-46
2021/09/17 01:47:06;;;;;;;9.27;8.37;;;17.60;72.70;;;;;;5011406;28;20198;-46
2021/09/17 01:49:32;;;;;;;8.90;8.00;;;17.70;72.90;;;;;;5010881;28;20473;-47
2021/09/17 01:51:58;;;;;;;9.40;8.37;;;17.80;72.70;;;;;;5011687;28;20567;-47
2021/09/17 01:54:24;;;;;;;8.27;7.47;;;17.80;72.30;;;;;;5010994;28;20524;-46
2021/09/17 01:56:49;;;;;;;10.73;7.83;;;17.90;72.20;;;;;;5001688;28;20210;-52
2021/09/17 01:59:15;;;;;;;8.20;7.40;;;17.90;71.80;;;;;;4992472;28;20718;-47
2021/09/17 02:01:41;;;;;;;8.27;7.50;;;17.70;72.20;;;;;;5011355;28;20198;-46
2021/09/17 02:04:07;;;;;;;8.33;7.53;;;17.70;72.40;;;;;;5010838;28;20425;-46
2021/09/17 02:06:32;;;;;;;8.17;7.47;;;17.90;72.40;;;;;;5009325;28;20649;-48
2021/09/17 02:08:58;;;;;;;8.23;7.53;;;18.10;71.80;;;;;;5010897;28;20194;-46
2021/09/17 02:11:24;;;;;;;7.63;6.93;;;18.20;71.30;;;;;;5014795;28;20570;-47
2021/09/17 02:13:50;;;;;;;8.17;7.37;;;18.30;70.70;;;;;;5014484;28;20800;-46
2021/09/17 02:16:15;;;;;;;7.97;7.17;;;18.40;70.30;;;;;;5014758;28;20194;-46
2021/09/17 02:18:41;;;;;;;9.03;8.13;;;18.40;69.90;;;;;;5014444;28;20218;-45
2021/09/17 02:21:07;;;;;;;8.53;7.80;;;18.40;69.80;;;;;;5015046;28;20190;-46
2021/09/17 02:23:33;;;;;;;10.90;8.57;;;18.50;69.90;;;;;;5012540;28;20569;-46
2021/09/17 02:25:58;;;;;;;8.40;7.60;;;18.50;69.50;;;;;;5014703;28;20440;-47
2021/09/17 02:28:24;;;;;;;8.20;7.40;;;18.60;69.70;;;;;;5014304;28;20200;-46
2021/09/17 02:30:49;;;;;;;8.03;7.33;;;18.60;69.50;;;;;;5014683;28;20603;-48
2021/09/17 02:33:15;;;;;;;9.37;7.30;;;18.70;69.30;;;;;;5014091;28;20190;-46
2021/09/17 02:35:41;;;;;;;8.80;7.90;;;18.70;69.00;;;;;;5014315;28;20212;-45
2021/09/17 02:38:07;;;;;;;7.90;7.10;;;18.60;69.10;;;;;;5014101;28;20197;-45
2021/09/17 02:40:33;;;;;;;8.87;7.97;;;18.30;69.90;;;;;;5014235;28;20480;-47
2021/09/17 02:42:58;;;;;;;9.10;7.27;;;18.40;70.20;;;;;;5013988;28;20194;-46
2021/09/17 02:45:24;;;;;;;8.97;7.83;;;18.40;70.10;;;;;;5014150;28;20194;-46
2021/09/17 02:47:50;;;;;;;8.73;7.93;;;18.20;70.80;;;;;;5013839;28;20205;-46
2021/09/17 02:50:16;;;;;;;9.67;8.67;;;18.10;71.10;;;;;;5012913;28;20194;-46
2021/09/17 02:52:42;;;;;;;9.60;8.63;;;18.10;71.70;;;;;;5013669;28;20471;-46
2021/09/17 02:55:09;;;;;;;11.63;8.07;;;18.20;71.30;;;;;;5014346;28;20274;-46
2021/09/17 02:57:36;;;;;;;10.70;7.73;;;18.40;71.00;;;;;;5000338;28;20430;-46
2021/09/17 03:00:05;;;;;;;8.53;7.73;;;18.30;70.40;;;;;;5002149;28;21145;-46
2021/09/17 03:02:31;;;;;;;9.83;8.83;;;18.30;70.70;;;;;;5014077;28;20514;-47
2021/09/17 03:04:56;;;;;;;11.53;8.90;;;18.40;70.70;;;;;;5013804;28;20478;-47
2021/09/17 03:07:22;;;;;;;10.50;9.37;;;18.40;70.60;;;;;;5011502;28;20193;-46
2021/09/17 03:09:47;;;;;;;11.03;9.67;;;18.50;70.30;;;;;;4993720;28;20198;-46
2021/09/17 03:12:13;;;;;;;12.00;9.13;;;18.50;70.30;;;;;;4994402;28;20297;-48
2021/09/17 03:14:39;;;;;;;10.30;9.27;;;18.50;70.10;;;;;;4994384;28;20563;-47
2021/09/17 03:17:04;;;;;;;9.97;9.03;;;18.40;70.10;;;;;;4991234;28;20202;-46
2021/09/17 03:19:30;;;;;;;10.40;9.40;;;18.20;71.00;;;;;;4993513;28;20233;-46
2021/09/17 03:21:59;;;;;;;10.30;9.13;;;18.10;71.70;;;;;;4994239;28;20195;-46
2021/09/17 03:24:26;;;;;;;9.50;8.60;;;18.10;71.90;;;;;;4993922;28;20202;-47
2021/09/17 03:26:51;;;;;;;11.20;8.70;;;18.20;71.80;;;;;;4993744;28;20433;-46
2021/09/17 03:29:17;;;;;;;9.03;8.13;;;18.30;71.20;;;;;;4993522;28;20430;-46
2021/09/17 03:31:43;;;;;;;10.03;9.00;;;18.20;71.30;;;;;;4993936;28;20281;-46
2021/09/17 03:34:08;;;;;;;10.83;8.47;;;18.10;71.40;;;;;;4993434;28;20198;-46
2021/09/17 03:36:41;;;;;;;11.20;8.73;;;18.10;71.50;;;;;;4993421;28;20189;-46
2021/09/17 03:39:07;;;;;;;10.80;7.37;;;18.20;71.70;;;;;;4993400;28;20258;-46
2021/09/17 03:41:33;;;;;;;8.77;7.87;;;18.30;71.20;;;;;;4993863;28;20532;-46
2021/09/17 03:43:58;;;;;;;9.37;7.90;;;18.50;70.70;;;;;;4991853;28;20194;-47
2021/09/17 03:46:24;;;;;;;8.57;7.77;;;18.40;70.50;;;;;;4993394;28;20662;-46
2021/09/17 03:48:50;;;;;;;8.60;7.40;;;18.50;70.50;;;;;;4993296;28;20242;-46
2021/09/17 03:51:16;;;;;;;7.87;7.17;;;18.50;70.30;;;;;;4993709;28;20667;-46
2021/09/17 03:53:42;;;;;;;8.60;7.77;;;18.40;70.10;;;;;;4993014;28;20429;-47
2021/09/17 03:56:07;;;;;;;8.30;7.50;;;18.20;70.90;;;;;;5002260;28;20272;-47
2021/09/17 03:58:33;;;;;;;8.07;7.27;;;18.10;71.40;;;;;;4992680;28;20238;-46
2021/09/17 04:00:59;;;;;;;7.13;6.50;;;18.00;71.70;;;;;;5009318;28;20252;-45
2021/09/17 04:03:24;;;;;;;9.20;7.50;;;18.10;71.90;;;;;;5012495;28;20205;-46
2021/09/17 04:05:50;;;;;;;7.27;6.63;;;18.10;71.90;;;;;;5012626;28;20646;-48
2021/09/17 04:08:15;;;;;;;7.57;6.87;;;18.00;71.70;;;;;;5003665;28;20709;-46
2021/09/17 04:10:41;;;;;;;8.60;6.53;;;18.00;72.10;;;;;;4991564;28;20210;-47
2021/09/17 04:13:06;;;;;;;7.80;7.10;;;18.20;71.60;;;;;;4992787;28;20322;-46
2021/09/17 04:15:32;;;;;;;8.97;6.83;;;18.40;71.10;;;;;;4992983;28;20198;-45
2021/09/17 04:17:58;;;;;;;7.70;6.90;;;18.50;70.60;;;;;;4992725;28;20269;-46
2021/09/17 04:20:23;;;;;;;7.73;7.03;;;18.60;70.20;;;;;;4993204;28;20313;-46
2021/09/17 04:22:49;;;;;;;11.40;6.90;;;18.70;69.90;;;;;;4992579;28;20198;-47
2021/09/17 04:25:15;;;;;;;7.87;7.07;;;18.70;69.80;;;;;;4992695;28;20661;-45
2021/09/17 04:27:44;;;;;;;7.40;6.80;;;18.80;69.60;;;;;;4992552;28;20274;-46
2021/09/17 04:30:12;;;;;;;7.80;6.90;;;18.80;69.40;;;;;;4992914;28;20448;-46
2021/09/17 04:32:38;;;;;;;7.10;6.50;;;18.90;69.30;;;;;;4992115;28;20430;-46
2021/09/17 04:35:04;;;;;;;7.00;6.33;;;18.90;69.00;;;;;;4992274;28;20487;-48
2021/09/17 04:37:30;;;;;;;9.17;7.23;;;18.90;68.80;;;;;;4991187;28;20203;-48
2021/09/17 04:39:55;;;;;;;7.17;6.57;;;19.00;68.80;;;;;;4992216;28;20488;-46
2021/09/17 04:42:21;;;;;;;7.37;6.73;;;18.90;68.60;;;;;;4992773;28;20194;-46
2021/09/17 04:44:47;;;;;;;8.63;7.80;;;18.80;68.70;;;;;;4991982;28;20240;-46
2021/09/17 04:47:13;;;;;;;7.60;7.00;;;18.80;68.60;;;;;;4992314;28;20268;-46
2021/09/17 04:49:38;;;;;;;8.03;7.33;;;18.90;68.50;;;;;;4992027;28;20860;-46
2021/09/17 04:52:04;;;;;;;7.97;7.27;;;18.90;68.30;;;;;;4992687;28;20513;-45
2021/09/17 04:54:30;;;;;;;7.07;6.30;;;19.00;68.30;;;;;;4991944;28;20195;-46
2021/09/17 04:56:55;;;;;;;7.83;7.13;;;19.00;68.10;;;;;;5001188;28;20191;-47
2021/09/17 04:59:21;;;;;;;8.33;7.07;;;19.00;67.90;;;;;;4994234;28;20397;-46
2021/09/17 05:01:47;;;;;;;7.47;6.70;;;18.90;67.50;;;;;;5011858;28;20197;-46
2021/09/17 05:04:13;;;;;;;7.17;6.47;;;18.90;67.30;;;;;;5009788;28;20208;-47
2021/09/17 05:06:38;;;;;;;8.70;7.80;;;18.90;67.20;;;;;;5011276;28;20425;-45
2021/09/17 05:09:04;;;;;;;9.47;8.47;;;18.90;67.30;;;;;;4995735;28;20539;-46
2021/09/17 05:11:30;;;;;;;8.70;7.87;;;18.80;67.40;;;;;;4992369;28;20198;-46
2021/09/17 05:13:55;;;;;;;8.80;8.03;;;18.70;67.90;;;;;;4992144;28;20273;-46
2021/09/17 05:16:21;;;;;;;8.80;7.13;;;18.60;68.60;;;;;;4992031;28;20191;-47
2021/09/17 05:18:47;;;;;;;11.47;7.83;;;18.50;69.10;;;;;;4991530;28;20596;-46
2021/09/17 05:21:13;;;;;;;7.10;6.50;;;18.50;69.30;;;;;;4992501;28;20195;-46
2021/09/17 05:23:39;;;;;;;10.87;7.03;;;18.50;69.40;;;;;;4991728;28;20430;-47
2021/09/17 05:26:05;;;;;;;7.70;7.00;;;18.50;69.40;;;;;;4991784;28;20500;-47
2021/09/17 05:28:32;;;;;;;8.30;6.80;;;18.50;69.10;;;;;;4990666;28;20430;-47
2021/09/17 05:30:58;;;;;;;8.37;7.50;;;18.50;69.30;;;;;;4991871;28;20191;-46
2021/09/17 05:33:23;;;;;;;7.27;6.67;;;18.50;69.40;;;;;;4991706;28;20429;-46
2021/09/17 05:35:49;;;;;;;9.60;7.10;;;18.40;69.80;;;;;;4991942;28;20213;-47
2021/09/17 05:38:15;;;;;;;9.90;6.80;;;18.30;70.10;;;;;;4991459;28;20665;-46
2021/09/17 05:40:40;;;;;;;7.97;7.20;;;18.30;70.10;;;;;;4992251;28;20273;-46
2021/09/17 05:43:06;;;;;;;8.60;7.73;;;18.20;70.60;;;;;;4991428;28;20201;-46
2021/09/17 05:45:32;;;;;;;7.60;6.90;;;18.00;71.40;;;;;;4993988;28;20198;-46
2021/09/17 05:47:57;;;;;;;7.27;6.57;;;17.90;72.00;;;;;;4995522;28;20989;-47
2021/09/17 05:50:23;;;;;;;8.53;7.20;;;18.10;72.00;;;;;;4996182;28;20551;-47
2021/09/17 05:52:49;;;;;;;10.60;7.40;;;18.10;71.60;;;;;;4995246;28;20209;-48
2021/09/17 05:55:14;;;;;;;7.60;6.90;;;18.20;71.50;;;;;;4997888;28;20189;-46
2021/09/17 05:57:40;;;;;;;8.40;7.60;;;18.40;71.30;;;;;;5000141;28;20587;-48
2021/09/17 06:00:08;;;;;;;9.43;7.17;;;18.50;70.90;;;;;;5004226;28;20303;-46
2021/09/17 06:02:34;;;;;;;6.60;6.03;;;18.60;70.70;;;;;;5015316;28;20194;-46
2021/09/17 06:04:59;;;;;;;7.93;7.03;;;18.60;70.30;;;;;;5014273;28;20475;-49
2021/09/17 06:07:25;;;;;;;7.67;6.97;;;18.70;70.30;;;;;;5012793;28;20186;-46
2021/09/17 06:09:50;;;;;;;7.90;7.17;;;18.70;70.00;;;;;;4995064;28;20187;-49
2021/09/17 06:12:16;;;;;;;10.40;6.83;;;18.80;69.70;;;;;;4995585;28;20195;-51
2021/09/17 06:14:42;;;;;;;7.57;6.87;;;18.90;69.60;;;;;;4994679;28;20682;-50
2021/09/17 06:17:07;;;;;;;7.50;6.70;;;18.90;69.40;;;;;;4995185;28;20190;-48
2021/09/17 06:19:33;;;;;;;7.67;6.73;;;18.90;69.20;;;;;;4994874;28;20678;-47
2021/09/17 06:21:58;;;;;;;8.13;7.33;;;18.90;69.20;;;;;;4993716;28;20202;-51
2021/09/17 06:24:24;;;;;;;8.13;7.43;;;19.00;69.30;;;;;;4994872;28;20550;-52
2021/09/17 06:26:50;;;;;;;8.30;7.50;;;19.00;69.20;;;;;;4994810;28;20567;-50
2021/09/17 06:29:15;;;;;;;8.30;7.47;;;19.10;69.20;;;;;;4994787;28;20190;-45
2021/09/17 06:31:41;;;;;;;7.37;6.57;;;19.10;69.10;;;;;;4995099;28;20206;-47
2021/09/17 06:34:07;;;;;;;10.43;6.70;;;19.00;69.30;;;;;;4994292;28;20285;-51
2021/09/17 06:36:33;;;;;;;8.37;7.67;;;18.70;70.00;;;;;;4994737;28;20195;-52
2021/09/17 06:39:02;;;;;;;8.90;7.90;;;18.80;70.30;;;;;;4994748;28;20305;-48
2021/09/17 06:41:29;;;;;;;7.77;6.97;;;18.70;70.20;;;;;;4994999;28;20204;-47
2021/09/17 06:43:55;;;;;;;7.23;6.63;;;18.50;71.30;;;;;;4994245;28;20433;-48
2021/09/17 06:46:20;;;;;;;8.03;7.30;;;18.30;71.70;;;;;;4994450;28;20850;-46
2021/09/17 06:48:46;;;;;;;7.70;6.90;;;18.10;73.00;;;;;;4992790;28;20252;-45
2021/09/17 06:51:11;;;;;;;8.37;7.50;;;18.20;73.20;;;;;;4994630;28;20590;-48
2021/09/17 06:53:37;;;;;;;8.20;7.50;;;18.30;72.90;;;;;;4994280;28;20658;-46
2021/09/17 06:56:03;;;;;;;8.10;7.30;;;18.60;72.40;;;;;;5002800;28;20270;-46
2021/09/17 06:58:31;;;;;;;8.10;7.30;;;18.60;71.60;;;;;;4994241;28;20245;-46
2021/09/17 07:00:58;;;;;;;8.57;7.60;;;18.70;71.50;;;;;;5010141;28;20221;-46
2021/09/17 07:03:24;;;;;;;11.80;7.40;;;18.60;72.30;;;;;;5013649;28;20437;-47
2021/09/17 07:05:49;;;;;;;8.30;7.50;;;18.70;72.20;;;;;;5013672;28;20441;-47
2021/09/17 07:08:15;;;;;;;10.77;7.10;;;18.90;71.80;;;;;;5004628;28;20669;-49
2021/09/17 07:10:41;;;;;;;7.77;7.00;;;19.10;71.50;;;;;;4994317;28;20198;-46
2021/09/17 07:13:07;;;;;;;8.37;7.50;;;19.20;70.90;;;;;;4994256;28;20425;-47
2021/09/17 07:15:34;;;;;;;8.33;6.97;;;19.30;70.30;;;;;;4992351;28;20270;-46
2021/09/17 07:18:05;;;;;;;10.40;7.40;;;19.40;70.00;;;;;;4993594;28;20430;-47
2021/09/17 07:20:31;;;;;;;7.60;6.93;;;19.50;69.50;;;;;;4994280;28;20564;-46
2021/09/17 07:22:56;;;;;;;8.27;7.47;;;19.60;69.40;;;;;;4993742;28;20525;-46
2021/09/17 07:25:22;;;;;;;8.73;7.83;;;19.70;69.30;;;;;;4993720;28;20434;-48
2021/09/17 07:27:48;;;;;;;9.77;7.50;;;19.70;69.20;;;;;;4993412;28;20646;-46
2021/09/17 07:30:15;;;;;;;8.83;7.50;;;19.80;69.00;;;;;;4993955;28;20202;-46
2021/09/17 07:32:41;;;;;;;9.57;8.10;;;19.80;68.60;;;;;;4993691;28;20229;-47
2021/09/17 07:35:08;;;;;;;8.93;8.23;;;19.90;68.60;;;;;;4993632;28;20425;-46
2021/09/17 07:37:34;;;;;;;9.00;8.10;;;19.90;68.50;;;;;;4993712;28;20437;-49
2021/09/17 07:39:59;;;;;;;8.00;7.20;;;20.10;68.30;;;;;;4993129;28;21051;-48
2021/09/17 07:42:25;;;;;;;9.27;8.47;;;20.20;68.20;;;;;;4992496;28;20218;-46
2021/09/17 07:44:50;;;;;;;8.07;7.23;;;20.00;66.90;;;;;;4992830;28;20206;-46
2021/09/17 07:47:16;;;;;;;8.60;7.77;;;19.80;67.90;;;;;;4993816;28;20577;-48
2021/09/17 07:49:42;;;;;;;9.07;8.17;;;19.90;67.60;;;;;;4993199;28;20222;-46
2021/09/17 07:52:08;;;;;;;7.77;6.97;;;19.90;67.30;;;;;;4993948;28;20193;-46
2021/09/17 07:54:34;;;;;;;9.37;7.70;;;19.80;67.50;;;;;;4993375;28;20925;-46
2021/09/17 07:56:59;;;;;;;9.07;7.33;;;19.90;67.20;;;;;;5002011;28;20430;-48
2021/09/17 07:59:25;;;;;;;8.43;7.63;;;19.80;67.40;;;;;;4995998;28;20313;-46
2021/09/17 08:01:51;;;;;;;8.43;7.60;;;20.10;67.40;;;;;;5013093;28;20610;-48
2021/09/17 08:04:16;;;;;;;8.20;7.40;;;20.20;67.10;;;;;;5012388;28;20644;-46
2021/09/17 08:06:42;;;;;;;10.87;8.93;;;20.40;67.00;;;;;;5012096;28;20205;-48
2021/09/17 08:09:08;;;;;;;10.10;7.70;;;20.50;66.50;;;;;;4994775;28;20556;-46
2021/09/17 08:11:34;;;;;;;7.60;6.80;;;20.60;65.80;;;;;;4993476;28;20198;-47
2021/09/17 08:14:00;;;;;;;9.50;8.17;;;20.70;65.30;;;;;;4992606;28;20209;-48
2021/09/17 08:16:26;;;;;;;8.03;7.33;;;20.80;65.10;;;;;;4992772;28;20793;-46
2021/09/17 08:18:52;;;;;;;7.97;7.20;;;20.80;64.80;;;;;;4992546;28;20473;-46
2021/09/17 08:21:17;;;;;;;7.27;6.60;;;20.70;63.50;;;;;;4993537;28;20197;-47
2021/09/17 08:23:43;;;;;;;7.80;7.10;;;20.80;63.30;;;;;;4992299;28;20198;-46
2021/09/17 08:26:09;;;;;;;8.73;7.87;;;20.90;63.30;;;;;;4992766;28;20199;-46
2021/09/17 08:28:35;;;;;;;8.90;8.03;;;21.00;63.00;;;;;;4992550;28;20418;-47
2021/09/17 08:31:03;;;;;;;8.40;7.50;;;21.00;63.50;;;;;;4992996;28;20230;-46
2021/09/17 08:33:32;;;;;;;7.00;6.40;;;21.10;64.20;;;;;;4992219;28;20286;-47
2021/09/17 08:35:58;;;;;;;8.03;7.33;;;21.20;63.20;;;;;;4991103;28;20512;-46
2021/09/17 08:38:24;;;;;;;7.37;6.67;;;21.30;62.70;;;;;;4992095;28;20452;-45
2021/09/17 08:40:54;;;;;;;8.67;7.97;;;21.40;62.30;;;;;;4992535;28;20441;-48
2021/09/17 08:43:21;;;;;;;8.43;7.37;;;21.50;62.00;;;;;;4992044;28;20545;-47
2021/09/17 08:45:48;;;;;;;9.37;6.73;;;21.60;61.60;;;;;;4992340;28;20516;-48
2021/09/17 08:48:15;;;;;;;10.27;7.70;;;21.60;61.20;;;;;;4991905;28;20421;-49
2021/09/17 08:50:41;;;;;;;6.90;6.27;;;21.70;61.00;;;;;;4992949;28;20583;-47
2021/09/17 08:53:07;;;;;;;8.43;7.63;;;21.70;61.90;;;;;;4991915;28;20445;-47
2021/09/17 08:55:33;;;;;;;8.53;6.43;;;21.70;61.60;;;;;;4998876;28;20429;-49
2021/09/17 08:57:58;;;;;;;9.13;6.90;;;21.80;61.60;;;;;;4994798;28;20241;-48
2021/09/17 09:00:27;;;;;;;10.50;7.57;;;21.90;61.60;;;;;;5001948;28;20231;-48
2021/09/17 09:02:57;;;;;;;6.27;5.67;;;21.90;61.00;;;;;;5011517;28;20221;-47
2021/09/17 09:05:42;;;;;;;8.90;7.90;;;22.00;61.10;;;;;;5011679;28;20435;-48
2021/09/17 09:08:07;;;;;;;7.73;7.03;;;22.00;61.50;;;;;;5009285;28;20452;-45
2021/09/17 09:10:34;;;;;;;8.63;7.03;;;22.10;61.00;;;;;;5011833;28;20599;-48
2021/09/17 09:13:05;;;;;;;8.23;6.33;;;22.20;60.60;;;;;;5011365;28;20194;-50
2021/09/17 09:15:32;;;;;;;9.37;7.03;;;22.30;60.10;;;;;;5011488;28;20798;-46
2021/09/17 09:18:09;;;;;;;8.03;6.63;;;22.30;59.50;;;;;;5011345;28;20425;-47
2021/09/17 09:20:46;;;;;;;7.63;6.93;;;21.90;59.40;;;;;;5011760;28;20973;-47
2021/09/17 09:23:24;;;;;;;7.80;7.07;;;21.70;61.00;;;;;;5011337;28;20452;-51
2021/09/17 09:26:08;;;;;;;7.50;6.80;;;21.90;60.30;;;;;;5011202;28;20437;-50
2021/09/17 09:28:39;;;;;;;9.53;7.23;;;22.10;59.10;;;;;;5009589;28;20436;-47
2021/09/17 09:31:11;;;;;;;7.77;7.07;;;22.30;59.10;;;;;;5011859;28;20444;-48
2021/09/17 09:33:40;;;;;;;7.20;6.53;;;22.40;59.00;;;;;;5011289;28;20437;-48
2021/09/17 09:36:11;;;;;;;8.23;7.20;;;22.50;59.70;;;;;;5011353;28;20436;-46
2021/09/17 09:38:40;;;;;;;7.10;6.30;;;22.50;59.10;;;;;;5011140;28;20475;-47
2021/09/17 09:41:08;;;;;;;7.33;6.60;;;22.50;58.60;;;;;;5011718;28;20476;-50
2021/09/17 09:43:37;;;;;;;8.57;7.40;;;22.60;58.50;;;;;;5010970;28;20798;-47
2021/09/17 09:46:38;;;;;;;7.80;7.10;;;22.80;58.00;;;;;;5011335;28;20425;-46
2021/09/17 09:49:07;;;;;;;7.40;6.70;;;22.90;57.30;;;;;;5011180;28;20491;-46
2021/09/17 09:51:52;;;;;;;8.43;7.63;;;23.00;57.10;;;;;;5011635;28;20487;-47
2021/09/17 09:54:18;;;;;;;8.03;6.87;;;23.20;56.60;;;;;;5009612;28;20429;-48
2021/09/17 09:56:44;;;;;;;8.00;7.30;;;23.30;56.30;;;;;;5004283;28;20459;-48
2021/09/17 09:59:10;;;;;;;11.37;8.67;;;23.30;54.70;;;;;;4992200;28;20767;-47
2021/09/17 10:01:38;;;;;;;8.43;7.67;;;23.30;55.00;;;;;;5011570;28;20818;-47
2021/09/17 10:04:05;;;;;;;10.03;7.80;;;23.40;54.50;;;;;;5010821;28;20194;-47
2021/09/17 10:06:37;;;;;;;8.23;7.43;;;23.30;54.70;;;;;;5010726;28;20472;-48
2021/09/17 10:09:08;;;;;;;8.83;8.00;;;23.40;55.60;;;;;;4995480;28;20437;-48
2021/09/17 10:11:35;;;;;;;9.00;8.10;;;23.60;54.90;;;;;;4991969;28;20422;-46
2021/09/17 10:14:03;;;;;;;9.43;6.70;;;23.70;54.50;;;;;;4991491;28;20426;-46
2021/09/17 10:16:31;;;;;;;8.40;7.50;;;23.90;54.20;;;;;;4991663;28;20430;-48
2021/09/17 10:18:58;;;;;;;10.93;7.70;;;24.00;54.10;;;;;;4990911;28;20481;-46
2021/09/17 10:21:45;;;;;;;7.23;6.63;;;24.00;53.70;;;;;;4990361;28;20433;-46
2021/09/17 10:24:25;;;;;;;6.97;6.33;;;24.00;53.90;;;;;;4991099;28;20465;-47
2021/09/17 10:27:00;;;;;;;8.90;7.10;;;24.20;54.80;;;;;;4991355;28;20860;-46
2021/09/17 10:29:46;;;;;;;8.37;7.60;;;24.30;53.60;;;;;;4991167;28;20859;-50
2021/09/17 10:32:26;;;;;;;7.30;6.70;;;24.40;53.20;;;;;;4994498;28;20437;-48
2021/09/17 10:35:18;;;;;;;8.03;7.20;;;24.60;53.30;;;;;;4994342;28;20441;-47
2021/09/17 10:38:05;;;;;;;8.50;6.57;;;24.60;52.80;;;;;;4994754;28;20477;-46
2021/09/17 10:40:43;;;;;;;7.80;7.00;;;24.80;52.90;;;;;;5001600;28;20485;-47
2021/09/17 10:43:08;;;;;;;7.93;7.10;;;24.90;53.10;;;;;;5014092;28;21150;-46
2021/09/17 10:45:42;;;;;;;8.33;6.57;;;24.80;51.30;;;;;;5014252;28;20431;-47
2021/09/17 10:48:09;;;;;;;7.97;7.27;;;24.30;53.10;;;;;;5012405;28;20190;-47
2021/09/17 10:50:42;;;;;;;8.20;6.43;;;24.40;53.40;;;;;;5014729;28;20424;-46
2021/09/17 10:53:09;;;;;;;7.87;7.17;;;24.20;51.80;;;;;;5013733;28;20433;-46
2021/09/17 10:55:43;;;;;;;9.73;6.63;;;24.50;51.60;;;;;;5013952;28;20444;-48
2021/09/17 10:58:24;;;;;;;8.33;5.87;;;24.80;51.60;;;;;;4995353;28;20604;-47
2021/09/17 11:01:02;;;;;;;7.77;6.87;;;25.00;51.90;;;;;;5009106;28;20492;-47
2021/09/17 11:03:37;;;;;;;9.63;6.07;;;25.20;51.20;;;;;;5013580;28;20436;-46
2021/09/17 11:08:50;;;;;;;7.07;6.23;;;25.50;49.10;;;;;;5000038;28;21293;-48
2021/09/17 11:11:31;;;;;;;6.73;5.70;;;25.60;48.50;;;;;;4994255;28;20496;-49
2021/09/17 11:13:59;;;;;;;7.00;6.50;;;25.60;49.70;;;;;;4992352;28;20453;-48
2021/09/17 11:16:27;;;;;;;6.10;5.13;;;25.60;49.70;;;;;;4994202;28;20433;-48
2021/09/17 11:18:53;;;;;;;6.10;5.50;;;25.70;49.50;;;;;;4994271;28;20532;-48
2021/09/17 11:21:20;;;;;;;6.20;5.73;;;25.70;48.70;;;;;;4994287;28;20773;-48
2021/09/17 11:23:49;;;;;;;5.73;5.00;;;25.80;47.60;;;;;;4993729;28;20425;-48
2021/09/17 11:26:19;;;;;;;6.33;5.07;;;25.80;47.00;;;;;;4993835;28;20429;-46
2021/09/17 11:29:00;;;;;;;6.50;5.00;;;25.70;46.90;;;;;;4993695;28;21162;-46
2021/09/17 11:31:31;;;;;;;5.77;5.27;;;25.80;46.10;;;;;;4993980;28;20437;-48
2021/09/17 11:33:57;;;;;;;5.60;5.10;;;25.90;46.80;;;;;;4993745;28;20496;-47
2021/09/17 11:36:33;;;;;;;5.50;4.97;;;25.90;46.40;;;;;;4993875;28;20933;-48
2021/09/17 11:39:12;;;;;;;5.87;5.00;;;25.90;46.70;;;;;;4992715;28;20895;-47
2021/09/17 11:41:39;;;;;;;5.53;5.07;;;25.90;45.40;;;;;;4993635;28;20465;-51
2021/09/17 11:44:04;;;;;;;5.73;5.10;;;26.00;45.90;;;;;;4993400;28;20432;-46
2021/09/17 11:46:30;;;;;;;6.07;4.67;;;26.00;45.50;;;;;;4993424;28;20430;-46
2021/09/17 11:48:55;;;;;;;6.70;4.30;;;26.00;44.80;;;;;;4993591;28;20661;-48
2021/09/17 11:51:21;;;;;;;9.73;5.13;;;26.10;45.70;;;;;;4993599;28;20281;-51
2021/09/17 11:53:47;;;;;;;5.70;5.20;;;26.10;46.50;;;;;;4993291;28;20191;-48
2021/09/17 11:56:13;;;;;;;5.13;4.73;;;26.20;46.20;;;;;;5001554;28;20426;-46
2021/09/17 11:58:45;;;;;;;4.70;4.30;;;26.30;46.10;;;;;;4992761;28;20265;-48
2021/09/17 12:01:22;;;;;;;5.20;4.70;;;26.30;46.20;;;;;;5010927;28;20192;-47
2021/09/17 12:03:50;;;;;;;4.80;4.40;;;26.40;45.40;;;;;;5012632;28;20464;-47
2021/09/17 12:06:17;;;;;;;4.17;3.73;;;26.50;45.90;;;;;;5011069;28;20440;-46
2021/09/17 12:08:43;;;;;;;4.50;3.67;;;26.60;45.50;;;;;;5000102;28;20469;-47
2021/09/17 12:11:09;;;;;;;6.27;3.73;;;26.60;44.90;;;;;;4993606;28;20493;-52
2021/09/17 12:13:34;;;;;;;4.87;4.47;;;26.70;43.20;;;;;;4992793;28;20426;-48
2021/09/17 12:16:08;;;;;;;5.83;4.03;;;26.80;44.00;;;;;;4992877;28;20201;-52
2021/09/17 12:18:34;;;;;;;3.37;3.10;;;26.90;43.50;;;;;;4992602;28;20202;-48
2021/09/17 12:21:02;;;;;;;3.63;3.40;;;26.90;40.40;;;;;;4993269;28;20418;-48
2021/09/17 12:23:31;;;;;;;2.93;2.63;;;26.80;39.40;;;;;;4993128;28;20257;-51
2021/09/17 12:26:15;;;;;;;4.37;2.33;;;27.00;37.70;;;;;;4992761;28;20948;-51
2021/09/17 12:28:47;;;;;;;2.00;1.90;;;27.00;38.50;;;;;;4992447;28;20430;-49
2021/09/17 12:31:28;;;;;;;5.33;2.23;;;27.20;37.60;;;;;;4993154;28;20433;-51
2021/09/17 12:34:12;;;;;;;2.63;2.43;;;27.50;38.90;;;;;;4990946;28;20434;-50
2021/09/17 12:36:39;;;;;;;4.50;3.53;;;27.60;37.30;;;;;;4992297;28;20434;-49
2021/09/17 12:39:07;;;;;;;4.27;3.80;;;27.70;39.70;;;;;;4992242;28;20505;-48
2021/09/17 12:41:33;;;;;;;4.53;3.60;;;27.70;42.20;;;;;;4992915;28;20480;-47
2021/09/17 12:44:13;;;;;;;3.80;3.30;;;27.70;41.70;;;;;;4992568;28;20438;-48
2021/09/17 12:46:48;;;;;;;4.80;3.97;;;27.50;42.10;;;;;;4992241;28;20209;-50
2021/09/17 12:49:15;;;;;;;3.60;3.30;;;27.50;42.10;;;;;;4992338;28;20421;-46
2021/09/17 12:51:52;;;;;;;3.67;3.37;;;27.60;43.10;;;;;;4992769;28;20417;-49